createdAt,value
2022-12-09T00:01:50.566Z,22.40
2022-12-09T00:04:18.672Z,24.53
2022-12-09T00:06:46.699Z,21.90
2022-12-09T00:09:16.271Z,20.10
2022-12-09T00:11:44.759Z,21.43
2022-12-09T00:14:13.041Z,22.83
2022-12-09T00:16:42.409Z,19.90
2022-12-09T00:19:11.027Z,20.43
2022-12-09T00:21:39.036Z,22.40
2022-12-09T00:24:08.972Z,20.07
2022-12-09T00:26:37.111Z,21.47
2022-12-09T00:29:05.080Z,22.47
2022-12-09T00:31:35.663Z,24.20
2022-12-09T00:34:06.886Z,20.30
2022-12-09T00:36:35.844Z,21.70
2022-12-09T00:39:06.642Z,21.70
2022-12-09T00:41:34.602Z,21.97
2022-12-09T00:44:02.825Z,22.60
2022-12-09T00:46:31.039Z,23.30
2022-12-09T00:48:59.313Z,22.60
2022-12-09T00:51:29.020Z,22.00
2022-12-09T00:53:57.186Z,24.77
2022-12-09T00:56:28.321Z,22.63
2022-12-09T00:58:57.059Z,22.60
2022-12-09T01:01:25.929Z,20.87
2022-12-09T01:03:54.433Z,20.57
2022-12-09T01:06:25.159Z,23.27
2022-12-09T01:08:55.215Z,22.57
2022-12-09T01:11:25.931Z,22.47
2022-12-09T01:13:54.685Z,22.00
2022-12-09T01:16:25.968Z,23.27
2022-12-09T01:18:57.549Z,21.57
2022-12-09T01:21:25.580Z,21.77
2022-12-09T01:23:54.848Z,21.73
2022-12-09T01:26:23.167Z,24.03
2022-12-09T01:28:52.915Z,22.77
2022-12-09T01:31:24.907Z,22.37
2022-12-09T01:33:54.799Z,22.17
2022-12-09T01:36:25.105Z,22.73
2022-12-09T01:38:54.875Z,22.47
2022-12-09T01:41:24.126Z,24.70
2022-12-09T01:44:08.768Z,24.03
2022-12-09T11:20:37.714Z,14.63
2022-12-09T11:23:14.765Z,13.57
2022-12-09T11:25:54.801Z,13.30
2022-12-09T11:28:29.310Z,15.10
2022-12-09T11:31:28.211Z,14.73
2022-12-09T11:33:56.971Z,13.93
2022-12-09T11:36:30.997Z,15.03
2022-12-09T11:39:11.777Z,13.63
2022-12-09T11:42:02.812Z,14.70
2022-12-09T11:44:33.212Z,15.53
2022-12-09T11:47:03.693Z,15.00
2022-12-09T11:49:35.632Z,16.17
2022-12-09T11:52:21.113Z,14.47
2022-12-09T11:54:54.113Z,14.37
2022-12-09T11:57:30.104Z,14.63
2022-12-09T12:00:02.597Z,14.77
2022-12-09T12:02:37.697Z,13.03
2022-12-09T12:05:21.686Z,13.90
2022-12-09T12:08:01.868Z,12.97
2022-12-09T12:10:32.557Z,12.20
2022-12-09T12:13:06.757Z,12.10
2022-12-09T12:15:44.770Z,13.20
2022-12-09T12:18:19.024Z,13.20
2022-12-09T12:21:03.730Z,12.53
2022-12-09T12:23:50.385Z,11.17
2022-12-09T12:26:22.885Z,12.43
2022-12-09T12:29:07.815Z,12.40
2022-12-09T12:31:54.920Z,12.77
2022-12-09T12:34:38.854Z,13.20
2022-12-09T12:37:21.292Z,11.63
2022-12-09T12:40:01.376Z,12.57
2022-12-09T12:42:39.746Z,13.60
2022-12-09T12:45:35.103Z,12.97
2022-12-09T12:48:07.268Z,11.27
2022-12-09T12:51:05.337Z,13.07
2022-12-09T12:53:43.037Z,12.70
2022-12-09T12:56:18.114Z,13.83
2022-12-09T12:59:02.246Z,14.47
2022-12-09T13:01:34.328Z,13.47
2022-12-09T13:04:12.673Z,12.87
2022-12-09T13:06:46.748Z,14.03
2022-12-09T13:09:21.080Z,12.83
2022-12-09T13:12:15.111Z,14.07
2022-12-09T13:14:52.534Z,13.23
2022-12-09T13:17:22.990Z,12.90
2022-12-09T13:19:54.198Z,12.98
2022-12-09T13:22:25.466Z,14.37
2022-12-09T13:25:01.921Z,15.20
2022-12-09T13:27:41.801Z,15.30
2022-12-09T13:30:32.412Z,13.20
2022-12-09T13:33:16.776Z,14.90
2022-12-09T13:35:54.850Z,13.10
2022-12-09T13:38:28.595Z,14.63
2022-12-09T13:40:56.562Z,14.80
2022-12-09T13:43:28.408Z,14.77
2022-12-09T13:45:58.737Z,14.30
2022-12-09T13:48:48.568Z,16.07
2022-12-09T13:51:18.331Z,14.00
2022-12-09T13:53:51.135Z,15.10
2022-12-09T13:56:30.599Z,15.33
2022-12-09T13:59:40.128Z,15.33
2022-12-09T14:02:20.008Z,15.60
2022-12-09T14:04:56.245Z,16.80
2022-12-09T14:07:32.130Z,14.70
2022-12-09T14:10:01.456Z,15.83
2022-12-09T14:13:04.883Z,13.73
2022-12-09T14:15:39.575Z,15.40
2022-12-09T14:18:29.576Z,14.60
2022-12-09T14:21:27.999Z,16.20
2022-12-09T14:24:35.289Z,15.27
2022-12-09T14:27:12.338Z,16.03
2022-12-09T14:29:49.086Z,14.95
2022-12-09T14:32:30.204Z,14.57
2022-12-09T14:35:17.093Z,15.83
2022-12-09T14:38:18.490Z,14.23
2022-12-09T14:40:57.828Z,14.60
2022-12-09T14:43:37.816Z,13.85
2022-12-09T14:46:08.743Z,13.23
2022-12-09T14:48:40.916Z,14.90
2022-12-09T14:51:17.448Z,13.75
2022-12-09T14:53:49.364Z,14.33
2022-12-09T14:56:20.538Z,14.20
2022-12-09T14:58:50.292Z,13.80
2022-12-09T15:01:19.245Z,13.37
2022-12-09T15:03:55.054Z,14.37
2022-12-09T15:06:26.733Z,15.63
2022-12-09T15:08:59.116Z,14.13
2022-12-09T15:11:31.630Z,13.97
2022-12-09T15:14:23.573Z,15.03
2022-12-09T15:16:52.337Z,15.60
2022-12-09T15:19:58.168Z,14.83
2022-12-09T15:22:21.545Z,13.90
2022-12-09T15:24:51.118Z,16.10
2022-12-09T15:27:21.957Z,15.83
2022-12-09T15:29:50.617Z,15.50
2022-12-09T15:32:26.394Z,14.80
2022-12-09T15:34:55.997Z,14.10
2022-12-09T15:37:27.538Z,15.30
2022-12-09T15:40:01.478Z,17.60
2022-12-09T15:42:33.403Z,15.67
2022-12-09T15:45:09.182Z,15.17
2022-12-09T15:47:41.194Z,14.88
2022-12-09T15:50:18.422Z,15.20
2022-12-09T15:52:51.323Z,14.97
2022-12-09T15:55:21.631Z,16.60
2022-12-09T15:57:52.366Z,17.57
2022-12-09T16:00:20.932Z,13.80
2022-12-09T16:02:50.752Z,16.00
2022-12-09T16:05:26.045Z,15.53
2022-12-09T16:07:56.624Z,16.10
2022-12-09T16:10:27.133Z,16.93
2022-12-09T16:13:09.588Z,16.80
2022-12-09T16:15:45.981Z,14.50
2022-12-09T16:18:18.375Z,15.80
2022-12-09T16:21:01.919Z,15.40
2022-12-09T16:23:29.969Z,16.70
2022-12-09T16:26:06.700Z,16.47
2022-12-09T16:28:35.164Z,16.13
2022-12-09T16:31:17.766Z,16.70
2022-12-09T16:33:49.280Z,16.00
2022-12-09T16:36:21.738Z,14.70
2022-12-09T16:39:26.284Z,16.27
2022-12-09T16:42:02.949Z,14.77
2022-12-09T16:44:34.814Z,15.77
2022-12-09T16:47:14.507Z,15.93
2022-12-09T16:49:45.510Z,17.33
2022-12-09T16:52:17.322Z,15.43
2022-12-09T16:54:47.162Z,17.33
2022-12-09T16:57:21.427Z,15.50
2022-12-09T16:59:49.599Z,17.30
2022-12-09T17:02:23.426Z,16.88
2022-12-09T17:04:52.729Z,17.27
2022-12-09T17:07:21.986Z,15.97
2022-12-09T17:09:50.250Z,19.40
2022-12-09T17:12:18.261Z,20.07
2022-12-09T17:14:46.356Z,17.30
2022-12-09T17:17:14.388Z,16.80
2022-12-09T17:19:42.951Z,16.13
2022-12-09T17:22:11.089Z,16.60
2022-12-09T17:24:40.862Z,17.80
2022-12-09T17:27:08.841Z,17.30
2022-12-09T17:29:37.196Z,16.50
2022-12-09T17:32:05.824Z,16.40
2022-12-09T17:34:34.188Z,17.57
2022-12-09T17:37:02.271Z,18.03
2022-12-09T17:39:30.196Z,19.03
2022-12-09T17:41:59.625Z,20.53
2022-12-09T17:44:27.503Z,18.03
2022-12-09T17:47:02.041Z,17.57
2022-12-09T17:49:33.657Z,19.17
2022-12-09T17:52:07.816Z,16.60
2022-12-09T17:54:35.936Z,17.87
2022-12-09T17:57:05.278Z,17.13
2022-12-09T17:59:33.225Z,17.92
2022-12-09T18:02:03.594Z,17.70
2022-12-09T18:04:32.231Z,18.87
2022-12-09T18:07:00.266Z,18.55
2022-12-09T18:09:28.117Z,17.48
2022-12-09T18:11:56.201Z,17.70
2022-12-09T18:14:25.643Z,18.83
2022-12-09T18:16:53.676Z,18.50
2022-12-09T18:19:23.691Z,18.30
2022-12-09T18:21:52.006Z,20.67
2022-12-09T18:24:20.045Z,19.20
2022-12-09T18:26:48.914Z,19.30
2022-12-09T18:29:16.939Z,18.20
2022-12-09T18:31:49.581Z,17.25
2022-12-09T18:34:20.954Z,19.40
2022-12-09T18:36:48.865Z,17.67
2022-12-09T18:39:16.990Z,17.30
2022-12-09T18:41:46.008Z,18.70
2022-12-09T18:44:15.441Z,17.27
2022-12-09T18:46:47.750Z,17.83
2022-12-09T18:49:18.225Z,17.67
2022-12-09T18:51:47.682Z,17.13
2022-12-09T18:54:17.458Z,17.97
2022-12-09T18:56:45.735Z,18.50
2022-12-09T18:59:14.108Z,17.30
2022-12-09T19:01:43.874Z,19.17
2022-12-09T19:04:15.817Z,18.33
2022-12-09T19:06:45.956Z,19.93
2022-12-09T19:09:16.422Z,18.40
2022-12-09T19:11:46.047Z,19.90
2022-12-09T19:14:15.039Z,20.50
2022-12-09T19:16:43.765Z,18.70
2022-12-09T19:19:14.214Z,20.40
2022-12-09T19:21:42.633Z,19.30
2022-12-09T19:24:15.377Z,18.47
2022-12-09T19:26:43.812Z,18.77
2022-12-09T19:29:13.144Z,17.10
2022-12-09T19:31:42.915Z,17.90
2022-12-09T19:34:15.073Z,19.60
2022-12-09T19:36:44.178Z,18.50
2022-12-09T19:39:13.884Z,18.87
2022-12-09T19:41:43.284Z,20.90
2022-12-09T19:44:15.302Z,19.10
2022-12-09T19:46:46.897Z,18.80
2022-12-09T19:49:23.260Z,18.33
2022-12-09T19:54:43.561Z,18.90
2022-12-09T19:57:11.751Z,18.93
2022-12-09T19:59:39.797Z,19.70
2022-12-09T20:02:11.869Z,17.50
2022-12-09T20:04:49.891Z,19.93
2022-12-09T20:07:18.340Z,19.37
2022-12-09T20:09:46.740Z,19.10
2022-12-09T20:12:14.977Z,20.80
2022-12-09T20:14:43.114Z,18.53
2022-12-09T20:17:11.195Z,19.97
2022-12-09T20:19:40.547Z,18.80
2022-12-09T20:22:08.658Z,19.60
2022-12-09T20:24:36.595Z,20.00
2022-12-09T20:27:04.574Z,20.10
2022-12-09T20:29:37.505Z,21.83
2022-12-09T20:32:06.958Z,18.30
2022-12-09T20:34:35.139Z,18.90
2022-12-09T20:37:04.691Z,17.60
2022-12-09T20:39:32.775Z,17.97
2022-12-09T20:42:01.051Z,17.00
2022-12-09T20:44:29.086Z,17.40
2022-12-09T20:46:57.732Z,18.10
2022-12-09T20:49:27.598Z,18.20
2022-12-09T20:51:55.855Z,16.33
2022-12-09T20:54:25.199Z,17.83
2022-12-09T20:56:54.858Z,16.63
2022-12-09T20:59:22.894Z,18.40
2022-12-09T21:01:50.781Z,17.73
2022-12-09T21:04:19.273Z,17.53
2022-12-09T21:06:47.607Z,18.50
2022-12-09T21:09:20.002Z,18.70
2022-12-09T21:11:51.033Z,17.97
2022-12-09T21:14:19.215Z,21.00
2022-12-09T21:16:50.714Z,20.07
2022-12-09T21:19:25.054Z,17.90
2022-12-09T21:21:54.575Z,19.50
2022-12-09T21:24:24.142Z,19.13
2022-12-09T21:26:56.181Z,18.50
2022-12-09T21:29:31.194Z,18.23
2022-12-09T21:31:59.718Z,19.30
2022-12-09T21:34:27.664Z,18.47
2022-12-09T21:36:55.533Z,19.43
2022-12-09T21:39:23.581Z,18.63
2022-12-09T21:41:53.419Z,19.57
2022-12-09T21:44:22.582Z,18.73
2022-12-09T21:46:51.211Z,19.70
2022-12-09T21:49:19.140Z,18.80
2022-12-09T21:51:47.606Z,20.20
2022-12-09T21:54:15.600Z,19.50
2022-12-09T21:56:43.530Z,19.00
2022-12-09T21:59:14.427Z,20.43
2022-12-09T22:01:43.991Z,19.93
2022-12-09T22:04:15.103Z,20.77
2022-12-09T22:06:46.124Z,20.50
2022-12-09T22:09:14.499Z,19.63
2022-12-09T22:11:42.431Z,18.53
2022-12-09T22:14:13.245Z,20.97
2022-12-09T22:16:43.628Z,22.50
2022-12-09T22:19:15.335Z,18.80
2022-12-09T22:21:43.241Z,18.23
2022-12-09T22:24:12.991Z,21.17
2022-12-09T22:26:43.602Z,20.40
2022-12-09T22:29:14.701Z,20.83
2022-12-09T22:31:43.969Z,21.60
2022-12-09T22:34:14.690Z,19.43
2022-12-09T22:36:42.958Z,20.17
2022-12-09T22:39:14.170Z,19.30
2022-12-09T22:41:43.557Z,19.10
2022-12-09T22:44:15.290Z,18.43
2022-12-09T22:46:43.727Z,18.97
2022-12-09T22:49:13.394Z,18.90
2022-12-09T22:51:41.903Z,20.17
2022-12-09T22:54:11.067Z,17.90
2022-12-09T22:56:41.162Z,20.43
2022-12-09T22:59:09.315Z,19.13
2022-12-09T23:01:38.921Z,19.00
2022-12-09T23:04:08.629Z,19.00
2022-12-09T23:06:38.354Z,17.93
2022-12-09T23:09:06.593Z,18.97
2022-12-09T23:11:34.746Z,19.40
2022-12-09T23:14:02.752Z,20.10
2022-12-09T23:16:31.304Z,17.80
2022-12-09T23:19:00.853Z,17.57
2022-12-09T23:21:30.516Z,18.20
2022-12-09T23:24:00.669Z,16.47
2022-12-09T23:26:31.588Z,17.87
2022-12-09T23:29:01.447Z,18.60
2022-12-09T23:31:32.627Z,18.17
2022-12-09T23:34:03.601Z,18.27
2022-12-09T23:36:33.310Z,18.57
2022-12-09T23:39:02.369Z,18.60
2022-12-09T23:41:31.197Z,19.87
2022-12-09T23:43:59.480Z,20.97
2022-12-09T23:46:31.105Z,19.10
2022-12-09T23:48:59.241Z,17.93
2022-12-09T23:51:30.436Z,19.43
2022-12-09T23:53:59.667Z,19.47
2022-12-09T23:56:30.096Z,17.20
2022-12-09T23:58:59.634Z,17.10
